sensor_id;sensor_type;location;lat;lon;timestamp;pressure;altitude;pressure_sealevel;temperature;humidity
49030;BME280;43337;52.070;4.508;2023-04-02T00:02:33;101448.84;;;6.54;100.00
49030;BME280;43337;52.070;4.508;2023-04-02T00:07:51;101447.25;;;6.44;100.00
49030;BME280;43337;52.070;4.508;2023-04-02T00:15:39;101464.63;;;6.48;100.00
49030;BME280;43337;52.070;4.508;2023-04-02T00:18:05;101473.28;;;6.52;100.00
49030;BME280;43337;52.070;4.508;2023-04-02T00:20:36;101477.75;;;6.47;100.00
49030;BME280;43337;52.070;4.508;2023-04-02T00:23:03;101479.47;;;6.48;100.00
49030;BME280;43337;52.070;4.508;2023-04-02T00:25:37;101455.31;;;6.29;100.00
49030;BME280;43337;52.070;4.508;2023-04-02T00:28:12;101482.25;;;6.35;100.00
49030;BME280;43337;52.070;4.508;2023-04-02T00:30:48;101498.75;;;6.41;100.00
49030;BME280;43337;52.070;4.508;2023-04-02T00:33:17;101489.28;;;6.32;100.00
49030;BME280;43337;52.070;4.508;2023-04-02T00:35:43;101505.88;;;6.29;100.00
49030;BME280;43337;52.070;4.508;2023-04-02T00:38:26;101492.94;;;6.20;100.00
49030;BME280;43337;52.070;4.508;2023-04-02T00:40:55;101501.59;;;6.24;100.00
49030;BME280;43337;52.070;4.508;2023-04-02T00:43:23;101505.94;;;6.25;100.00
49030;BME280;43337;52.070;4.508;2023-04-02T00:45:54;101489.59;;;6.09;100.00
49030;BME280;43337;52.070;4.508;2023-04-02T00:48:44;101500.03;;;6.12;100.00
49030;BME280;43337;52.070;4.508;2023-04-02T00:51:27;101525.22;;;6.19;100.00
49030;BME280;43337;52.070;4.508;2023-04-02T00:53:55;101525.25;;;6.16;100.00
49030;BME280;43337;52.070;4.508;2023-04-02T00:56:31;101527.84;;;6.16;100.00
49030;BME280;43337;52.070;4.508;2023-04-02T00:58:58;101538.31;;;6.16;100.00
49030;BME280;43337;52.070;4.508;2023-04-02T01:01:27;101529.72;;;6.08;100.00
49030;BME280;43337;52.070;4.508;2023-04-02T01:04:00;101555.72;;;6.17;100.00
49030;BME280;43337;52.070;4.508;2023-04-02T01:06:31;101502.03;;;5.88;100.00
49030;BME280;43337;52.070;4.508;2023-04-02T01:22:43;101576.75;;;6.06;100.00
49030;BME280;43337;52.070;4.508;2023-04-02T01:25:18;101570.66;;;6.06;100.00
49030;BME280;43337;52.070;4.508;2023-04-02T01:27:51;101568.19;;;5.97;100.00
49030;BME280;43337;52.070;4.508;2023-04-02T01:30:20;101562.97;;;5.91;100.00
49030;BME280;43337;52.070;4.508;2023-04-02T01:32:46;101583.81;;;5.98;100.00
49030;BME280;43337;52.070;4.508;2023-04-02T01:35:12;101598.63;;;6.01;100.00
49030;BME280;43337;52.070;4.508;2023-04-02T01:37:43;101577.81;;;5.88;100.00
49030;BME280;43337;52.070;4.508;2023-04-02T01:40:37;101602.16;;;5.95;100.00
49030;BME280;43337;52.070;4.508;2023-04-02T01:43:25;101605.69;;;5.93;100.00
49030;BME280;43337;52.070;4.508;2023-04-02T01:45:56;101600.47;;;5.93;100.00
49030;BME280;43337;52.070;4.508;2023-04-02T01:48:25;101582.28;;;5.76;100.00
49030;BME280;43337;52.070;4.508;2023-04-02T01:50:55;101613.53;;;5.90;100.00
49030;BME280;43337;52.070;4.508;2023-04-02T01:53:23;101607.50;;;5.83;100.00
49030;BME280;43337;52.070;4.508;2023-04-02T01:55:54;101585.84;;;5.70;100.00
49030;BME280;43337;52.070;4.508;2023-04-02T01:58:26;101622.31;;;5.82;100.00
49030;BME280;43337;52.070;4.508;2023-04-02T02:03:21;101625.84;;;5.77;100.00
49030;BME280;43337;52.070;4.508;2023-04-02T02:05:47;101644.94;;;5.83;100.00
49030;BME280;43337;52.070;4.508;2023-04-02T02:11:05;101646.69;;;5.83;100.00
49030;BME280;43337;52.070;4.508;2023-04-02T02:13:30;101646.78;;;5.74;100.00
49030;BME280;43337;52.070;4.508;2023-04-02T02:16:02;101645.94;;;5.70;100.00
49030;BME280;43337;52.070;4.508;2023-04-02T02:18:28;101655.47;;;5.74;100.00
49030;BME280;43337;52.070;4.508;2023-04-02T02:20:56;101654.66;;;5.69;100.00
49030;BME280;43337;52.070;4.508;2023-04-02T02:23:23;101663.38;;;5.70;100.00
49030;BME280;43337;52.070;4.508;2023-04-02T02:25:49;101668.63;;;5.67;100.00
49030;BME280;43337;52.070;4.508;2023-04-02T02:28:44;101671.25;;;5.65;100.00
49030;BME280;43337;52.070;4.508;2023-04-02T02:31:20;101665.19;;;5.60;100.00
49030;BME280;43337;52.070;4.508;2023-04-02T02:33:51;101680.88;;;5.61;100.00
49030;BME280;43337;52.070;4.508;2023-04-02T02:36:28;101681.75;;;5.56;100.00
49030;BME280;43337;52.070;4.508;2023-04-02T02:41:41;101681.75;;;5.56;100.00
49030;BME280;43337;52.070;4.508;2023-04-02T02:46:37;101688.84;;;5.43;100.00
49030;BME280;43337;52.070;4.508;2023-04-02T02:49:04;101703.53;;;5.53;100.00
49030;BME280;43337;52.070;4.508;2023-04-02T02:51:46;101686.22;;;5.42;100.00
49030;BME280;43337;52.070;4.508;2023-04-02T02:54:14;101711.44;;;5.47;100.00
49030;BME280;43337;52.070;4.508;2023-04-02T02:56:48;101713.19;;;5.45;100.00
49030;BME280;43337;52.070;4.508;2023-04-02T02:59:17;101712.31;;;5.45;100.00
49030;BME280;43337;52.070;4.508;2023-04-02T03:01:44;101722.78;;;5.42;100.00
49030;BME280;43337;52.070;4.508;2023-04-02T03:04:12;101734.94;;;5.46;100.00
49030;BME280;43337;52.070;4.508;2023-04-02T03:06:38;101726.31;;;5.36;100.00
49030;BME280;43337;52.070;4.508;2023-04-02T03:14:35;101743.78;;;5.28;100.00
49030;BME280;43337;52.070;4.508;2023-04-02T03:17:17;101768.09;;;5.33;100.00
49030;BME280;43337;52.070;4.508;2023-04-02T03:19:54;101749.91;;;5.21;100.00
49030;BME280;43337;52.070;4.508;2023-04-02T03:22:40;101772.50;;;5.28;100.00
49030;BME280;43337;52.070;4.508;2023-04-02T03:25:31;101775.16;;;5.20;100.00
49030;BME280;43337;52.070;4.508;2023-04-02T03:28:03;101758.69;;;5.07;100.00
49030;BME280;43337;52.070;4.508;2023-04-02T03:30:43;101767.38;;;5.06;100.00
49030;BME280;43337;52.070;4.508;2023-04-02T03:33:33;101790.81;;;5.14;100.00
49030;BME280;43337;52.070;4.508;2023-04-02T03:38:54;101794.34;;;5.08;100.00
49030;BME280;43337;52.070;4.508;2023-04-02T03:41:33;101795.22;;;5.06;100.00
49030;BME280;43337;52.070;4.508;2023-04-02T03:44:13;101800.44;;;5.04;100.00
49030;BME280;43337;52.070;4.508;2023-04-02T03:46:43;101820.44;;;5.10;100.00
49030;BME280;43337;52.070;4.508;2023-04-02T03:49:22;101831.75;;;5.07;100.00
49030;BME280;43337;52.070;4.508;2023-04-02T03:51:55;101809.22;;;4.86;100.00
49030;BME280;43337;52.070;4.508;2023-04-02T03:54:22;101845.66;;;5.06;100.00
49030;BME280;43337;52.070;4.508;2023-04-02T03:56:47;101853.50;;;5.05;100.00
49030;BME280;43337;52.070;4.508;2023-04-02T04:04:39;101858.78;;;4.93;100.00
49030;BME280;43337;52.070;4.508;2023-04-02T04:07:12;101847.50;;;4.81;100.00
49030;BME280;43337;52.070;4.508;2023-04-02T04:09:41;101853.59;;;4.82;100.00
49030;BME280;43337;52.070;4.508;2023-04-02T04:12:33;101882.25;;;4.94;100.00
49030;BME280;43337;52.070;4.508;2023-04-02T04:17:43;101884.00;;;4.86;100.00
49030;BME280;43337;52.070;4.508;2023-04-02T04:20:19;101893.59;;;4.88;100.00
49030;BME280;43337;52.070;4.508;2023-04-02T04:22:48;101904.00;;;4.90;100.00
49030;BME280;43337;52.070;4.508;2023-04-02T04:25:27;101910.13;;;4.84;100.00
49030;BME280;43337;52.070;4.508;2023-04-02T04:30:59;101926.63;;;4.82;100.00
49030;BME280;43337;52.070;4.508;2023-04-02T04:33:44;101903.16;;;4.68;100.00
49030;BME280;43337;52.070;4.508;2023-04-02T04:36:22;101916.19;;;4.68;100.00
49030;BME280;43337;52.070;4.508;2023-04-02T04:38:55;101937.06;;;4.76;100.00
49030;BME280;43337;52.070;4.508;2023-04-02T04:41:27;101912.72;;;4.60;100.00
49030;BME280;43337;52.070;4.508;2023-04-02T04:44:13;101943.16;;;4.67;100.00
49030;BME280;43337;52.070;4.508;2023-04-02T04:46:51;101926.66;;;4.57;100.00
49030;BME280;43337;52.070;4.508;2023-04-02T04:51:50;101938.81;;;4.60;100.00
49030;BME280;43337;52.070;4.508;2023-04-02T04:54:17;101916.22;;;4.40;100.00
49030;BME280;43337;52.070;4.508;2023-04-02T04:56:47;101939.66;;;4.45;100.00
49030;BME280;43337;52.070;4.508;2023-04-02T04:59:18;101971.84;;;4.53;100.00
49030;BME280;43337;52.070;4.508;2023-04-02T05:02:09;101969.25;;;4.52;100.00
49030;BME280;43337;52.070;4.508;2023-04-02T05:04:40;101976.19;;;4.51;100.00
49030;BME280;43337;52.070;4.508;2023-04-02T05:07:13;101984.91;;;4.50;100.00
49030;BME280;43337;52.070;4.508;2023-04-02T05:12:59;101984.00;;;4.44;100.00
49030;BME280;43337;52.070;4.508;2023-04-02T05:15:34;101999.63;;;4.40;100.00
49030;BME280;43337;52.070;4.508;2023-04-02T05:23:48;102004.81;;;4.30;100.00
49030;BME280;43337;52.070;4.508;2023-04-02T05:26:24;102017.88;;;4.27;100.00
49030;BME280;43337;52.070;4.508;2023-04-02T05:29:14;102028.28;;;4.30;100.00
49030;BME280;43337;52.070;4.508;2023-04-02T05:31:45;102029.16;;;4.21;100.00
49030;BME280;43337;52.070;4.508;2023-04-02T05:34:13;102047.41;;;4.27;100.00
49030;BME280;43337;52.070;4.508;2023-04-02T05:36:45;102037.84;;;4.20;100.00
49030;BME280;43337;52.070;4.508;2023-04-02T05:39:11;102037.81;;;4.22;100.00
49030;BME280;43337;52.070;4.508;2023-04-02T05:41:44;102056.97;;;4.24;100.00
49030;BME280;43337;52.070;4.508;2023-04-02T05:47:11;102074.31;;;4.19;100.00
49030;BME280;43337;52.070;4.508;2023-04-02T05:52:29;102080.34;;;4.05;100.00
49030;BME280;43337;52.070;4.508;2023-04-02T05:55:18;102074.22;;;3.94;100.00
49030;BME280;43337;52.070;4.508;2023-04-02T05:57:54;102093.34;;;3.96;100.00
49030;BME280;43337;52.070;4.508;2023-04-02T06:00:42;102103.72;;;3.90;100.00
49030;BME280;43337;52.070;4.508;2023-04-02T06:03:22;102108.91;;;3.85;100.00
49030;BME280;43337;52.070;4.508;2023-04-02T06:05:52;102084.47;;;3.68;100.00
49030;BME280;43337;52.070;4.508;2023-04-02T06:08:29;102125.34;;;3.75;100.00
49030;BME280;43337;52.070;4.508;2023-04-02T06:11:12;102115.66;;;3.54;100.00
49030;BME280;43337;52.070;4.508;2023-04-02T06:13:41;102134.84;;;3.65;100.00
49030;BME280;43337;52.070;4.508;2023-04-02T06:16:11;102117.34;;;3.49;100.00
49030;BME280;43337;52.070;4.508;2023-04-02T06:18:38;102141.69;;;3.56;100.00
49030;BME280;43337;52.070;4.508;2023-04-02T06:21:04;102133.81;;;3.47;100.00
49030;BME280;43337;52.070;4.508;2023-04-02T06:23:44;102159.91;;;3.56;100.00
49030;BME280;43337;52.070;4.508;2023-04-02T06:26:40;102170.31;;;3.53;100.00
49030;BME280;43337;52.070;4.508;2023-04-02T06:31:57;102169.38;;;3.45;100.00
49030;BME280;43337;52.070;4.508;2023-04-02T06:34:25;102178.09;;;3.47;100.00
49030;BME280;43337;52.070;4.508;2023-04-02T06:37:16;102182.34;;;3.40;100.00
49030;BME280;43337;52.070;4.508;2023-04-02T06:39:43;102195.41;;;3.43;100.00
49030;BME280;43337;52.070;4.508;2023-04-02T06:42:13;102189.34;;;3.44;100.00
49030;BME280;43337;52.070;4.508;2023-04-02T06:44:40;102186.66;;;3.35;100.00
49030;BME280;43337;52.070;4.508;2023-04-02T06:47:15;102206.66;;;3.42;100.00
49030;BME280;43337;52.070;4.508;2023-04-02T06:49:48;102188.31;;;3.28;100.00
49030;BME280;43337;52.070;4.508;2023-04-02T06:52:23;102187.34;;;3.15;100.00
49030;BME280;43337;52.070;4.508;2023-04-02T06:54:49;102177.84;;;3.21;100.00
49030;BME280;43337;52.070;4.508;2023-04-02T06:57:15;102218.72;;;3.32;100.00
49030;BME280;43337;52.070;4.508;2023-04-02T06:59:41;102165.47;;;3.00;100.00
49030;BME280;43337;52.070;4.508;2023-04-02T07:02:33;102241.31;;;3.35;100.00
49030;BME280;43337;52.070;4.508;2023-04-02T07:05:07;102243.03;;;3.34;100.00
49030;BME280;43337;52.070;4.508;2023-04-02T07:07:36;102245.63;;;3.34;100.00
49030;BME280;43337;52.070;4.508;2023-04-02T07:10:02;102256.91;;;3.32;100.00
49030;BME280;43337;52.070;4.508;2023-04-02T07:12:27;102238.56;;;3.23;100.00
49030;BME280;43337;52.070;4.508;2023-04-02T07:14:52;102251.66;;;3.30;100.00
49030;BME280;43337;52.070;4.508;2023-04-02T07:17:18;102267.34;;;3.35;100.00
49030;BME280;43337;52.070;4.508;2023-04-02T07:19:45;102278.63;;;3.35;100.00
49030;BME280;43337;52.070;4.508;2023-04-02T07:22:15;102280.38;;;3.36;100.00
49030;BME280;43337;52.070;4.508;2023-04-02T07:24:40;102263.81;;;3.30;100.00
49030;BME280;43337;52.070;4.508;2023-04-02T07:27:05;102279.53;;;3.39;100.00
49030;BME280;43337;52.070;4.508;2023-04-02T07:29:31;102270.00;;;3.39;100.00
49030;BME280;43337;52.070;4.508;2023-04-02T07:31:56;102276.09;;;3.43;100.00
49030;BME280;43337;52.070;4.508;2023-04-02T07:34:22;102263.88;;;3.36;100.00
49030;BME280;43337;52.070;4.508;2023-04-02T07:36:47;102292.63;;;3.48;100.00
49030;BME280;43337;52.070;4.508;2023-04-02T07:39:13;102301.34;;;3.53;100.00
49030;BME280;43337;52.070;4.508;2023-04-02T07:41:59;102313.47;;;3.47;100.00
49030;BME280;43337;52.070;4.508;2023-04-02T07:44:25;102321.31;;;3.53;100.00
49030;BME280;43337;52.070;4.508;2023-04-02T07:46:51;102309.91;;;3.41;100.00
49030;BME280;43337;52.070;4.508;2023-04-02T07:49:16;102306.44;;;3.39;100.00
49030;BME280;43337;52.070;4.508;2023-04-02T07:51:42;102320.34;;;3.41;100.00
49030;BME280;43337;52.070;4.508;2023-04-02T07:54:07;102319.50;;;3.42;100.00
49030;BME280;43337;52.070;4.508;2023-04-02T07:56:34;102320.44;;;3.51;100.00
49030;BME280;43337;52.070;4.508;2023-04-02T07:59:00;102338.69;;;3.52;100.00
49030;BME280;43337;52.070;4.508;2023-04-02T08:01:26;102329.06;;;3.45;100.00
49030;BME280;43337;52.070;4.508;2023-04-02T08:03:53;102289.78;;;3.25;100.00
49030;BME280;43337;52.070;4.508;2023-04-02T08:06:18;102291.59;;;3.31;100.00
49030;BME280;43337;52.070;4.508;2023-04-02T08:08:44;102322.16;;;3.49;100.00
49030;BME280;43337;52.070;4.508;2023-04-02T08:11:10;102319.53;;;3.47;100.00
49030;BME280;43337;52.070;4.508;2023-04-02T08:13:36;102339.50;;;3.47;100.00
49030;BME280;43337;52.070;4.508;2023-04-02T08:16:02;102365.72;;;3.65;100.00
49030;BME280;43337;52.070;4.508;2023-04-02T08:18:29;102377.00;;;3.64;100.00
49030;BME280;43337;52.070;4.508;2023-04-02T08:20:54;102389.16;;;3.63;100.00
49030;BME280;43337;52.070;4.508;2023-04-02T08:23:20;102362.94;;;3.50;100.00
49030;BME280;43337;52.070;4.508;2023-04-02T08:25:47;102380.38;;;3.57;100.00
49030;BME280;43337;52.070;4.508;2023-04-02T08:28:13;102401.25;;;3.60;100.00
49030;BME280;43337;52.070;4.508;2023-04-02T08:30:38;102362.72;;;3.27;100.00
49030;BME280;43337;52.070;4.508;2023-04-02T08:33:03;102411.69;;;3.60;100.00
49030;BME280;43337;52.070;4.508;2023-04-02T08:35:29;102398.56;;;3.51;100.00
49030;BME280;43337;52.070;4.508;2023-04-02T08:37:55;102412.50;;;3.56;100.00
49030;BME280;43337;52.070;4.508;2023-04-02T08:43:17;102424.00;;;3.76;100.00
49030;BME280;43337;52.070;4.508;2023-04-02T08:48:33;102438.03;;;3.87;100.00
49030;BME280;43337;52.070;4.508;2023-04-02T08:51:01;102429.41;;;3.93;100.00
49030;BME280;43337;52.070;4.508;2023-04-02T08:53:33;102439.06;;;4.02;100.00
49030;BME280;43337;52.070;4.508;2023-04-02T08:56:08;102439.97;;;4.04;100.00
49030;BME280;43337;52.070;4.508;2023-04-02T08:58:43;102446.00;;;4.03;100.00
49030;BME280;43337;52.070;4.508;2023-04-02T09:03:45;102449.31;;;3.86;100.00
49030;BME280;43337;52.070;4.508;2023-04-02T09:06:15;102457.91;;;3.78;100.00
49030;BME280;43337;52.070;4.508;2023-04-02T09:08:44;102450.88;;;3.72;100.00
49030;BME280;43337;52.070;4.508;2023-04-02T09:13:54;102464.72;;;3.66;100.00
49030;BME280;43337;52.070;4.508;2023-04-02T09:16:29;102457.91;;;3.78;100.00
49030;BME280;43337;52.070;4.508;2023-04-02T09:18:59;102477.31;;;4.04;100.00
49030;BME280;43337;52.070;4.508;2023-04-02T09:21:35;102478.38;;;4.23;100.00
49030;BME280;43337;52.070;4.508;2023-04-02T09:24:01;102422.47;;;3.95;100.00
49030;BME280;43337;52.070;4.508;2023-04-02T09:26:30;102467.16;;;4.33;100.00
49030;BME280;43337;52.070;4.508;2023-04-02T09:31:38;102469.16;;;4.57;100.00
49030;BME280;43337;52.070;4.508;2023-04-02T09:34:27;102485.94;;;4.88;100.00
49030;BME280;43337;52.070;4.508;2023-04-02T09:36:54;102486.88;;;5.03;100.00
49030;BME280;43337;52.070;4.508;2023-04-02T09:39:23;102497.44;;;5.17;100.00
49030;BME280;43337;52.070;4.508;2023-04-02T09:41:50;102489.59;;;5.17;100.00
49030;BME280;43337;52.070;4.508;2023-04-02T09:44:27;102504.50;;;5.31;100.00
49030;BME280;43337;52.070;4.508;2023-04-02T09:47:00;102487.06;;;5.27;100.00
49030;BME280;43337;52.070;4.508;2023-04-02T09:49:37;102500.16;;;5.36;100.00
49030;BME280;43337;52.070;4.508;2023-04-02T09:54:31;102485.25;;;5.17;100.00
49030;BME280;43337;52.070;4.508;2023-04-02T09:57:03;102514.00;;;5.26;100.00
49030;BME280;43337;52.070;4.508;2023-04-02T09:59:29;102509.63;;;5.22;100.00
49030;BME280;43337;52.070;4.508;2023-04-02T10:01:56;102528.81;;;5.23;100.00
49030;BME280;43337;52.070;4.508;2023-04-02T10:09:59;102522.88;;;5.53;100.00
49030;BME280;43337;52.070;4.508;2023-04-02T10:12:25;102539.53;;;5.72;100.00
49030;BME280;43337;52.070;4.508;2023-04-02T10:14:53;102516.94;;;5.81;100.00
49030;BME280;43337;52.070;4.508;2023-04-02T10:17:34;102521.38;;;5.99;100.00
49030;BME280;43337;52.070;4.508;2023-04-02T10:20:07;102521.41;;;6.05;100.00
49030;BME280;43337;52.070;4.508;2023-04-02T10:22:40;102520.59;;;6.16;100.00
49030;BME280;43337;52.070;4.508;2023-04-02T10:25:16;102536.28;;;6.22;100.00
49030;BME280;43337;52.070;4.508;2023-04-02T10:27:44;102540.69;;;6.44;100.00
49030;BME280;43337;52.070;4.508;2023-04-02T10:30:36;102539.81;;;6.39;100.00
49030;BME280;43337;52.070;4.508;2023-04-02T10:33:16;102560.81;;;6.57;100.00
49030;BME280;43337;52.070;4.508;2023-04-02T10:35:49;102562.56;;;6.66;100.00
49030;BME280;43337;52.070;4.508;2023-04-02T10:38:23;102570.41;;;6.78;100.00
49030;BME280;43337;52.070;4.508;2023-04-02T10:43:42;102572.19;;;6.93;100.00
49030;BME280;43337;52.070;4.508;2023-04-02T10:49:20;102585.28;;;7.13;100.00
49030;BME280;43337;52.070;4.508;2023-04-02T10:54:48;102591.38;;;7.27;100.00
49030;BME280;43337;52.070;4.508;2023-04-02T10:59:58;102589.63;;;7.40;100.00
49030;BME280;43337;52.070;4.508;2023-04-02T11:08:14;102585.22;;;7.61;100.00
49030;BME280;43337;52.070;4.508;2023-04-02T11:10:45;102584.31;;;7.74;100.00
49030;BME280;43337;52.070;4.508;2023-04-02T11:13:23;102586.91;;;7.85;100.00
49030;BME280;43337;52.070;4.508;2023-04-02T11:15:51;102580.78;;;7.86;100.00
49030;BME280;43337;52.070;4.508;2023-04-02T11:18:26;102562.47;;;7.78;100.00
49030;BME280;43337;52.070;4.508;2023-04-02T11:23:59;102594.66;;;8.23;100.00
49030;BME280;43337;52.070;4.508;2023-04-02T11:26:37;102592.91;;;8.20;100.00
49030;BME280;43337;52.070;4.508;2023-04-02T11:29:26;102606.84;;;8.28;100.00
49030;BME280;43337;52.070;4.508;2023-04-02T11:32:12;102606.00;;;8.25;100.00
49030;BME280;43337;52.070;4.508;2023-04-02T11:37:09;102616.44;;;8.43;100.00
49030;BME280;43337;52.070;4.508;2023-04-02T11:44:43;102598.88;;;8.54;100.00
49030;BME280;43337;52.070;4.508;2023-04-02T11:47:26;102608.44;;;8.65;100.00
49030;BME280;43337;52.070;4.508;2023-04-02T11:52:24;102606.63;;;8.80;100.00
49030;BME280;43337;52.070;4.508;2023-04-02T11:58:16;102637.16;;;8.94;100.00
49030;BME280;43337;52.070;4.508;2023-04-02T12:09:54;102630.00;;;9.13;100.00
49030;BME280;43337;52.070;4.508;2023-04-02T12:12:26;102644.84;;;9.20;100.00
49030;BME280;43337;52.070;4.508;2023-04-02T12:14:54;102647.47;;;9.18;100.00
49030;BME280;43337;52.070;4.508;2023-04-02T12:20:01;102651.78;;;9.28;100.00
49030;BME280;43337;52.070;4.508;2023-04-02T12:22:30;102644.75;;;9.32;100.00
49030;BME280;43337;52.070;4.508;2023-04-02T12:25:03;102664.84;;;9.42;100.00
49030;BME280;43337;52.070;4.508;2023-04-02T12:27:29;102644.72;;;9.38;100.00
49030;BME280;43337;52.070;4.508;2023-04-02T12:30:19;102650.78;;;9.43;98.02
49030;BME280;43337;52.070;4.508;2023-04-02T12:32:45;102661.22;;;9.52;100.00
49030;BME280;43337;52.070;4.508;2023-04-02T12:35:29;102639.28;;;9.55;100.00
49030;BME280;43337;52.070;4.508;2023-04-02T12:37:56;102655.81;;;9.69;100.00
49030;BME280;43337;52.070;4.508;2023-04-02T12:40:24;102652.25;;;9.76;100.00
49030;BME280;43337;52.070;4.508;2023-04-02T12:42:50;102657.44;;;9.84;100.00
49030;BME280;43337;52.070;4.508;2023-04-02T12:45:27;102656.50;;;9.90;100.00
49030;BME280;43337;52.070;4.508;2023-04-02T12:47:56;102649.47;;;9.92;100.00
49030;BME280;43337;52.070;4.508;2023-04-02T12:50:26;102639.84;;;9.89;100.00
49030;BME280;43337;52.070;4.508;2023-04-02T12:52:53;102644.97;;;10.00;100.00
49030;BME280;43337;52.070;4.508;2023-04-02T12:55:21;102658.09;;;10.05;100.00
49030;BME280;43337;52.070;4.508;2023-04-02T12:57:48;102658.16;;;10.00;100.00
49030;BME280;43337;52.070;4.508;2023-04-02T13:05:54;102678.25;;;10.07;92.90
49030;BME280;43337;52.070;4.508;2023-04-02T13:08:24;102678.06;;;10.22;100.00
49030;BME280;43337;52.070;4.508;2023-04-02T13:10:59;102684.13;;;10.32;100.00
49030;BME280;43337;52.070;4.508;2023-04-02T13:13:28;102682.28;;;10.37;100.00
49030;BME280;43337;52.070;4.508;2023-04-02T13:16:22;102685.72;;;10.44;93.44
49030;BME280;43337;52.070;4.508;2023-04-02T13:18:49;102663.09;;;10.31;100.00
49030;BME280;43337;52.070;4.508;2023-04-02T13:23:40;102690.88;;;10.55;100.00
49030;BME280;43337;52.070;4.508;2023-04-02T13:26:16;102696.19;;;10.51;98.50
49030;BME280;43337;52.070;4.508;2023-04-02T13:31:23;102692.53;;;10.62;100.00
49030;BME280;43337;52.070;4.508;2023-04-02T13:33:48;102673.28;;;10.57;100.00
49030;BME280;43337;52.070;4.508;2023-04-02T13:36:15;102686.31;;;10.67;100.00
49030;BME280;43337;52.070;4.508;2023-04-02T13:38:41;102687.22;;;10.66;100.00
49030;BME280;43337;52.070;4.508;2023-04-02T13:41:27;102687.25;;;10.65;90.86
49030;BME280;43337;52.070;4.508;2023-04-02T13:43:53;102689.81;;;10.68;97.15
49030;BME280;43337;52.070;4.508;2023-04-02T13:46:22;102675.00;;;10.59;99.42
49030;BME280;43337;52.070;4.508;2023-04-02T13:48:52;102686.31;;;10.67;100.00
49030;BME280;43337;52.070;4.508;2023-04-02T13:51:20;102696.75;;;10.77;100.00
49030;BME280;43337;52.070;4.508;2023-04-02T13:53:53;102670.53;;;10.64;95.36
49030;BME280;43337;52.070;4.508;2023-04-02T13:56:19;102702.84;;;10.79;99.23
49030;BME280;43337;52.070;4.508;2023-04-02T13:58:46;102702.88;;;10.77;97.96
49030;BME280;43337;52.070;4.508;2023-04-02T14:01:12;102693.16;;;10.82;98.78
49030;BME280;43337;52.070;4.508;2023-04-02T14:03:40;102707.22;;;10.81;95.34
49030;BME280;43337;52.070;4.508;2023-04-02T14:08:58;102709.72;;;10.90;95.64
49030;BME280;43337;52.070;4.508;2023-04-02T14:11:40;102704.56;;;10.84;96.89
49030;BME280;43337;52.070;4.508;2023-04-02T14:25:35;102733.88;;;11.21;94.94
49030;BME280;43337;52.070;4.508;2023-04-02T14:33:50;102735.56;;;11.25;87.98
49030;BME280;43337;52.070;4.508;2023-04-02T14:36:50;102735.59;;;11.24;82.64
49030;BME280;43337;52.070;4.508;2023-04-02T14:42:43;102742.50;;;11.34;88.03
49030;BME280;43337;52.070;4.508;2023-04-02T14:45:21;102750.34;;;11.37;85.12
49030;BME280;43337;52.070;4.508;2023-04-02T14:47:53;102752.03;;;11.43;93.38
49030;BME280;43337;52.070;4.508;2023-04-02T14:50:37;102745.09;;;11.36;85.02
49030;BME280;43337;52.070;4.508;2023-04-02T14:53:30;102740.72;;;11.35;92.40
49030;BME280;43337;52.070;4.508;2023-04-02T14:55:53;102760.88;;;11.39;93.33
49030;BME280;43337;52.070;4.508;2023-04-02T14:58:25;102759.16;;;11.36;91.17
49030;BME280;43337;52.070;4.508;2023-04-02T15:03:37;102763.41;;;11.45;85.95
49030;BME280;43337;52.070;4.508;2023-04-02T15:06:14;102757.31;;;11.43;84.46
49030;BME280;43337;52.070;4.508;2023-04-02T15:09:13;102761.72;;;11.41;80.51
49030;BME280;43337;52.070;4.508;2023-04-02T15:11:52;102750.28;;;11.42;89.50
49030;BME280;43337;52.070;4.508;2023-04-02T15:14:30;102771.31;;;11.45;80.77
49030;BME280;43337;52.070;4.508;2023-04-02T15:16:56;102768.63;;;11.48;89.60
49030;BME280;43337;52.070;4.508;2023-04-02T15:19:22;102765.22;;;11.41;89.56
49030;BME280;43337;52.070;4.508;2023-04-02T15:24:31;102766.88;;;11.50;87.72
49030;BME280;43337;52.070;4.508;2023-04-02T15:30:23;102768.59;;;11.51;87.87
49030;BME280;43337;52.070;4.508;2023-04-02T15:32:50;102763.31;;;11.51;91.31
49030;BME280;43337;52.070;4.508;2023-04-02T15:35:27;102779.91;;;11.59;89.39
49030;BME280;43337;52.070;4.508;2023-04-02T15:52:37;102768.88;;;11.34;76.87
49030;BME280;43337;52.070;4.508;2023-04-02T15:55:21;102768.00;;;11.32;81.04
49030;BME280;43337;52.070;4.508;2023-04-02T16:01:01;102780.44;;;11.24;81.26
49030;BME280;43337;52.070;4.508;2023-04-02T16:06:26;102777.06;;;11.13;83.68
49030;BME280;43337;52.070;4.508;2023-04-02T16:09:10;102793.69;;;11.19;84.64
49030;BME280;43337;52.070;4.508;2023-04-02T16:11:40;102764.81;;;11.09;87.40
49030;BME280;43337;52.070;4.508;2023-04-02T16:14:23;102792.84;;;11.16;80.80
49030;BME280;43337;52.070;4.508;2023-04-02T16:16:50;102789.34;;;11.14;83.70
49030;BME280;43337;52.070;4.508;2023-04-02T16:22:17;102801.72;;;11.09;86.63
49030;BME280;43337;52.070;4.508;2023-04-02T16:24:47;102792.25;;;10.95;87.53
49030;BME280;43337;52.070;4.508;2023-04-02T16:27:32;102797.53;;;10.95;82.83
49030;BME280;43337;52.070;4.508;2023-04-02T16:30:27;102785.34;;;10.85;86.98
49030;BME280;43337;52.070;4.508;2023-04-02T16:35:39;102797.66;;;10.85;86.44
49030;BME280;43337;52.070;4.508;2023-04-02T16:38:49;102817.75;;;10.92;87.06
49030;BME280;43337;52.070;4.508;2023-04-02T16:43:54;102816.97;;;10.84;87.43
49030;BME280;43337;52.070;4.508;2023-04-02T16:46:37;102820.53;;;10.80;87.70
49030;BME280;43337;52.070;4.508;2023-04-02T16:49:25;102829.25;;;10.85;90.76